sensor_id;sensor_type;location;lat;lon;timestamp;pressure;altitude;pressure_sealevel;temperature;humidity
74346;BME280;62776;50.518;6.732;2023-10-31T00:00:38;94826.09;;;10.55;100.00
74346;BME280;62776;50.518;6.732;2023-10-31T00:03:24;94829.66;;;10.53;100.00
74346;BME280;62776;50.518;6.732;2023-10-31T00:06:10;94835.91;;;10.49;100.00
74346;BME280;62776;50.518;6.732;2023-10-31T00:08:56;94838.72;;;10.43;100.00
74346;BME280;62776;50.518;6.732;2023-10-31T00:11:43;94847.34;;;10.43;100.00
74346;BME280;62776;50.518;6.732;2023-10-31T00:14:30;94851.81;;;10.40;100.00
74346;BME280;62776;50.518;6.732;2023-10-31T00:17:16;94852.66;;;10.40;100.00
74346;BME280;62776;50.518;6.732;2023-10-31T00:20:02;94844.78;;;10.42;100.00
74346;BME280;62776;50.518;6.732;2023-10-31T00:22:49;94836.22;;;10.40;100.00
74346;BME280;62776;50.518;6.732;2023-10-31T00:25:35;94842.41;;;10.36;100.00
74346;BME280;62776;50.518;6.732;2023-10-31T00:28:21;94848.56;;;10.33;100.00
74346;BME280;62776;50.518;6.732;2023-10-31T00:31:07;94852.34;;;10.25;100.00
74346;BME280;62776;50.518;6.732;2023-10-31T00:33:54;94860.50;;;10.16;100.00
74346;BME280;62776;50.518;6.732;2023-10-31T00:36:41;94867.44;;;10.15;100.00
74346;BME280;62776;50.518;6.732;2023-10-31T00:39:27;94875.97;;;10.19;100.00
74346;BME280;62776;50.518;6.732;2023-10-31T00:42:13;94881.97;;;10.19;100.00
74346;BME280;62776;50.518;6.732;2023-10-31T00:45:00;94877.75;;;10.17;100.00
74346;BME280;62776;50.518;6.732;2023-10-31T00:47:46;94887.25;;;10.18;100.00
74346;BME280;62776;50.518;6.732;2023-10-31T00:50:32;94884.72;;;10.16;100.00
74346;BME280;62776;50.518;6.732;2023-10-31T00:53:19;94888.22;;;10.14;100.00
74346;BME280;62776;50.518;6.732;2023-10-31T00:56:05;94885.75;;;10.11;100.00
74346;BME280;62776;50.518;6.732;2023-10-31T00:58:51;94879.72;;;10.08;100.00
74346;BME280;62776;50.518;6.732;2023-10-31T01:01:17;94879.06;;;10.03;100.00
74346;BME280;62776;50.518;6.732;2023-10-31T01:04:03;94881.28;;;9.89;100.00
74346;BME280;62776;50.518;6.732;2023-10-31T01:06:50;94883.34;;;9.80;100.00
74346;BME280;62776;50.518;6.732;2023-10-31T01:09:36;94878.28;;;9.75;100.00
74346;BME280;62776;50.518;6.732;2023-10-31T01:12:22;94879.25;;;9.73;100.00
74346;BME280;62776;50.518;6.732;2023-10-31T01:15:08;94879.50;;;9.65;100.00
74346;BME280;62776;50.518;6.732;2023-10-31T01:17:54;94877.19;;;9.58;100.00
74346;BME280;62776;50.518;6.732;2023-10-31T01:20:40;94885.91;;;9.55;100.00
74346;BME280;62776;50.518;6.732;2023-10-31T01:23:26;94890.41;;;9.50;100.00
74346;BME280;62776;50.518;6.732;2023-10-31T01:26:13;94890.59;;;9.44;100.00
74346;BME280;62776;50.518;6.732;2023-10-31T01:28:59;94893.41;;;9.38;100.00
74346;BME280;62776;50.518;6.732;2023-10-31T01:31:45;94895.19;;;9.36;100.00
74346;BME280;62776;50.518;6.732;2023-10-31T01:34:33;94891.94;;;9.29;100.00
74346;BME280;62776;50.518;6.732;2023-10-31T01:37:19;94892.03;;;9.26;100.00
74346;BME280;62776;50.518;6.732;2023-10-31T01:40:07;94885.22;;;9.24;100.00
74346;BME280;62776;50.518;6.732;2023-10-31T01:42:53;94880.22;;;9.18;100.00
74346;BME280;62776;50.518;6.732;2023-10-31T01:45:40;94890.56;;;9.18;100.00
74346;BME280;62776;50.518;6.732;2023-10-31T01:48:29;94884.00;;;9.08;100.00
74346;BME280;62776;50.518;6.732;2023-10-31T01:51:16;94882.34;;;9.05;100.00
74346;BME280;62776;50.518;6.732;2023-10-31T01:54:03;94873.81;;;9.02;100.00
74346;BME280;62776;50.518;6.732;2023-10-31T01:56:51;94875.84;;;8.92;100.00
74346;BME280;62776;50.518;6.732;2023-10-31T01:59:41;94887.97;;;8.92;100.00
74346;BME280;62776;50.518;6.732;2023-10-31T02:02:28;94884.56;;;8.89;100.00
74346;BME280;62776;50.518;6.732;2023-10-31T02:05:18;94882.88;;;8.88;100.00
74346;BME280;62776;50.518;6.732;2023-10-31T02:08:06;94885.63;;;8.84;100.00
74346;BME280;62776;50.518;6.732;2023-10-31T02:10:54;94879.56;;;8.83;100.00
74346;BME280;62776;50.518;6.732;2023-10-31T02:13:40;94887.34;;;8.83;100.00
74346;BME280;62776;50.518;6.732;2023-10-31T02:16:26;94881.25;;;8.84;100.00
74346;BME280;62776;50.518;6.732;2023-10-31T02:19:13;94879.81;;;8.76;100.00
74346;BME280;62776;50.518;6.732;2023-10-31T02:22:03;94895.38;;;8.74;100.00
74346;BME280;62776;50.518;6.732;2023-10-31T02:24:49;94892.84;;;8.73;100.00
74346;BME280;62776;50.518;6.732;2023-10-31T02:27:35;94890.28;;;8.71;100.00
74346;BME280;62776;50.518;6.732;2023-10-31T02:30:21;94891.22;;;8.70;100.00
74346;BME280;62776;50.518;6.732;2023-10-31T02:33:07;94890.19;;;8.74;100.00
74346;BME280;62776;50.518;6.732;2023-10-31T02:35:54;94898.88;;;8.73;100.00
74346;BME280;62776;50.518;6.732;2023-10-31T02:38:40;94897.81;;;8.79;100.00
74346;BME280;62776;50.518;6.732;2023-10-31T02:41:32;94893.59;;;8.76;100.00
74346;BME280;62776;50.518;6.732;2023-10-31T02:44:18;94885.56;;;8.85;100.00
74346;BME280;62776;50.518;6.732;2023-10-31T02:47:04;94878.78;;;8.81;100.00
74346;BME280;62776;50.518;6.732;2023-10-31T02:49:50;94898.66;;;8.81;100.00
74346;BME280;62776;50.518;6.732;2023-10-31T02:52:37;94898.69;;;8.79;100.00
74346;BME280;62776;50.518;6.732;2023-10-31T02:55:23;94889.16;;;8.80;100.00
74346;BME280;62776;50.518;6.732;2023-10-31T02:58:09;94889.09;;;8.83;100.00
74346;BME280;62776;50.518;6.732;2023-10-31T03:00:55;94887.34;;;8.83;100.00
74346;BME280;62776;50.518;6.732;2023-10-31T03:03:41;94892.44;;;8.86;100.00
74346;BME280;62776;50.518;6.732;2023-10-31T03:06:28;94899.91;;;8.96;100.00
74346;BME280;62776;50.518;6.732;2023-10-31T03:09:14;94888.47;;;9.03;100.00
74346;BME280;62776;50.518;6.732;2023-10-31T03:12:00;94896.06;;;9.09;100.00
74346;BME280;62776;50.518;6.732;2023-10-31T03:14:46;94894.94;;;9.17;100.00
74346;BME280;62776;50.518;6.732;2023-10-31T03:17:32;94888.72;;;9.23;100.00
74346;BME280;62776;50.518;6.732;2023-10-31T03:20:18;94899.13;;;9.21;100.00
74346;BME280;62776;50.518;6.732;2023-10-31T03:23:04;94897.47;;;9.19;100.00
74346;BME280;62776;50.518;6.732;2023-10-31T03:25:50;94904.25;;;9.23;100.00
74346;BME280;62776;50.518;6.732;2023-10-31T03:28:37;94909.13;;;9.32;100.00
74346;BME280;62776;50.518;6.732;2023-10-31T03:31:24;94915.09;;;9.35;100.00
74346;BME280;62776;50.518;6.732;2023-10-31T03:34:10;94916.53;;;9.44;100.00
74346;BME280;62776;50.518;6.732;2023-10-31T03:36:56;94918.88;;;9.52;100.00
74346;BME280;62776;50.518;6.732;2023-10-31T03:39:42;94925.72;;;9.54;100.00
74346;BME280;62776;50.518;6.732;2023-10-31T03:42:28;94920.31;;;9.60;100.00
74346;BME280;62776;50.518;6.732;2023-10-31T03:45:17;94924.47;;;9.66;100.00
74346;BME280;62776;50.518;6.732;2023-10-31T03:48:06;94926.22;;;9.65;100.00
74346;BME280;62776;50.518;6.732;2023-10-31T03:50:52;94929.38;;;9.75;100.00
74346;BME280;62776;50.518;6.732;2023-10-31T03:53:39;94936.97;;;9.79;100.00
74346;BME280;62776;50.518;6.732;2023-10-31T03:56:25;94936.13;;;9.79;100.00
74346;BME280;62776;50.518;6.732;2023-10-31T03:59:11;94934.56;;;9.75;100.00
74346;BME280;62776;50.518;6.732;2023-10-31T04:01:58;94938.13;;;9.71;100.00
74346;BME280;62776;50.518;6.732;2023-10-31T04:04:44;94932.09;;;9.70;100.00
74346;BME280;62776;50.518;6.732;2023-10-31T04:07:30;94943.41;;;9.68;100.00
74346;BME280;62776;50.518;6.732;2023-10-31T04:10:19;94951.34;;;9.63;100.00
74346;BME280;62776;50.518;6.732;2023-10-31T04:13:05;94948.69;;;9.65;100.00
74346;BME280;62776;50.518;6.732;2023-10-31T04:15:51;94957.31;;;9.67;100.00
74346;BME280;62776;50.518;6.732;2023-10-31T04:18:37;94959.84;;;9.68;100.00
74346;BME280;62776;50.518;6.732;2023-10-31T04:21:23;94960.44;;;9.76;100.00
74346;BME280;62776;50.518;6.732;2023-10-31T04:24:09;94973.41;;;9.76;100.00
74346;BME280;62776;50.518;6.732;2023-10-31T04:26:55;94968.97;;;9.80;100.00
74346;BME280;62776;50.518;6.732;2023-10-31T04:29:43;94975.75;;;9.84;100.00
74346;BME280;62776;50.518;6.732;2023-10-31T04:32:30;94981.03;;;9.81;100.00
74346;BME280;62776;50.518;6.732;2023-10-31T04:35:16;94984.53;;;9.80;100.00
74346;BME280;62776;50.518;6.732;2023-10-31T04:38:03;94984.44;;;9.83;100.00
74346;BME280;62776;50.518;6.732;2023-10-31T04:40:49;94990.59;;;9.80;100.00
74346;BME280;62776;50.518;6.732;2023-10-31T04:43:35;94986.38;;;9.76;100.00
74346;BME280;62776;50.518;6.732;2023-10-31T04:46:21;94991.56;;;9.76;100.00
74346;BME280;62776;50.518;6.732;2023-10-31T04:49:07;94992.44;;;9.75;100.00
74346;BME280;62776;50.518;6.732;2023-10-31T04:51:53;95002.72;;;9.78;100.00
74346;BME280;62776;50.518;6.732;2023-10-31T04:54:40;94992.44;;;9.75;100.00
74346;BME280;62776;50.518;6.732;2023-10-31T04:57:26;94989.91;;;9.74;100.00
74346;BME280;62776;50.518;6.732;2023-10-31T05:00:13;94992.66;;;9.69;100.00
74346;BME280;62776;50.518;6.732;2023-10-31T05:02:59;94997.84;;;9.69;100.00
74346;BME280;62776;50.518;6.732;2023-10-31T05:05:47;95002.94;;;9.72;100.00
74346;BME280;62776;50.518;6.732;2023-10-31T05:08:33;94996.16;;;9.68;100.00
74346;BME280;62776;50.518;6.732;2023-10-31T05:11:19;94997.94;;;9.66;100.00
74346;BME280;62776;50.518;6.732;2023-10-31T05:14:07;95010.94;;;9.66;100.00
74346;BME280;62776;50.518;6.732;2023-10-31T05:16:54;95005.84;;;9.62;100.00
74346;BME280;62776;50.518;6.732;2023-10-31T05:19:41;95008.59;;;9.57;100.00
74346;BME280;62776;50.518;6.732;2023-10-31T05:22:27;95008.59;;;9.57;100.00
74346;BME280;62776;50.518;6.732;2023-10-31T05:25:13;95010.50;;;9.52;100.00
74346;BME280;62776;50.518;6.732;2023-10-31T05:27:59;95016.66;;;9.48;100.00
74346;BME280;62776;50.518;6.732;2023-10-31T05:30:45;95005.59;;;9.43;100.00
74346;BME280;62776;50.518;6.732;2023-10-31T05:33:31;95010.88;;;9.40;100.00
74346;BME280;62776;50.518;6.732;2023-10-31T05:36:25;95007.84;;;9.26;100.00
74346;BME280;62776;50.518;6.732;2023-10-31T05:39:12;95007.91;;;9.24;100.00
74346;BME280;62776;50.518;6.732;2023-10-31T05:41:59;95019.22;;;9.20;100.00
74346;BME280;62776;50.518;6.732;2023-10-31T05:44:45;95036.56;;;9.20;100.00
74346;BME280;62776;50.518;6.732;2023-10-31T05:47:31;95035.00;;;9.14;100.00
74346;BME280;62776;50.518;6.732;2023-10-31T05:50:18;95048.78;;;9.15;100.00
74346;BME280;62776;50.518;6.732;2023-10-31T05:53:05;95059.13;;;9.15;100.00
74346;BME280;62776;50.518;6.732;2023-10-31T05:55:51;95065.94;;;9.19;100.00
74346;BME280;62776;50.518;6.732;2023-10-31T05:58:37;95071.94;;;9.21;100.00
74346;BME280;62776;50.518;6.732;2023-10-31T06:01:24;95063.84;;;9.31;100.00
74346;BME280;62776;50.518;6.732;2023-10-31T06:04:10;95072.34;;;9.36;100.00
74346;BME280;62776;50.518;6.732;2023-10-31T06:06:56;95060.03;;;9.43;100.00
74346;BME280;62776;50.518;6.732;2023-10-31T06:09:42;95069.34;;;9.50;100.00
74346;BME280;62776;50.518;6.732;2023-10-31T06:12:28;95071.13;;;9.48;100.00
74346;BME280;62776;50.518;6.732;2023-10-31T06:15:14;95070.16;;;9.52;100.00
74346;BME280;62776;50.518;6.732;2023-10-31T06:18:01;95069.13;;;9.58;100.00
74346;BME280;62776;50.518;6.732;2023-10-31T06:20:48;95070.63;;;9.65;100.00
74346;BME280;62776;50.518;6.732;2023-10-31T06:23:39;95079.25;;;9.65;100.00
74346;BME280;62776;50.518;6.732;2023-10-31T06:26:25;95082.56;;;9.70;100.00
74346;BME280;62776;50.518;6.732;2023-10-31T06:29:11;95086.75;;;9.74;100.00
74346;BME280;62776;50.518;6.732;2023-10-31T06:31:57;95086.78;;;9.73;100.00
74346;BME280;62776;50.518;6.732;2023-10-31T06:34:43;95091.16;;;9.72;100.00
74346;BME280;62776;50.518;6.732;2023-10-31T06:37:29;95095.50;;;9.72;100.00
74346;BME280;62776;50.518;6.732;2023-10-31T06:40:16;95102.38;;;9.73;100.00
74346;BME280;62776;50.518;6.732;2023-10-31T06:43:02;95106.72;;;9.72;100.00
74346;BME280;62776;50.518;6.732;2023-10-31T06:45:50;95110.38;;;9.65;100.00
74346;BME280;62776;50.518;6.732;2023-10-31T06:48:36;95116.50;;;9.63;100.00
74346;BME280;62776;50.518;6.732;2023-10-31T06:51:22;95117.63;;;9.54;100.00
74346;BME280;62776;50.518;6.732;2023-10-31T06:54:08;95116.16;;;9.45;100.00
74346;BME280;62776;50.518;6.732;2023-10-31T06:56:54;95125.00;;;9.38;100.00
74346;BME280;62776;50.518;6.732;2023-10-31T06:59:40;95124.28;;;9.33;100.00
74346;BME280;62776;50.518;6.732;2023-10-31T07:02:27;95120.06;;;9.29;100.00
74346;BME280;62776;50.518;6.732;2023-10-31T07:05:13;95121.06;;;9.25;100.00
74346;BME280;62776;50.518;6.732;2023-10-31T07:07:59;95123.78;;;9.21;100.00
74346;BME280;62776;50.518;6.732;2023-10-31T07:10:46;95129.88;;;9.20;100.00
74346;BME280;62776;50.518;6.732;2023-10-31T07:13:32;95123.03;;;9.17;100.00
74346;BME280;62776;50.518;6.732;2023-10-31T07:16:18;95129.13;;;9.15;100.00
74346;BME280;62776;50.518;6.732;2023-10-31T07:19:04;95132.53;;;9.17;100.00
74346;BME280;62776;50.518;6.732;2023-10-31T07:21:50;95139.41;;;9.18;100.00
74346;BME280;62776;50.518;6.732;2023-10-31T07:24:36;95145.50;;;9.17;100.00
74346;BME280;62776;50.518;6.732;2023-10-31T07:27:23;95152.28;;;9.21;100.00
74346;BME280;62776;50.518;6.732;2023-10-31T07:30:11;95156.69;;;9.19;100.00
74346;BME280;62776;50.518;6.732;2023-10-31T07:32:57;95159.97;;;9.24;100.00
74346;BME280;62776;50.518;6.732;2023-10-31T07:35:43;95160.78;;;9.26;100.00
74346;BME280;62776;50.518;6.732;2023-10-31T07:38:31;95167.53;;;9.31;100.00
74346;BME280;62776;50.518;6.732;2023-10-31T07:41:17;95164.84;;;9.36;100.00
74346;BME280;62776;50.518;6.732;2023-10-31T07:44:03;95177.53;;;9.45;100.00
74346;BME280;62776;50.518;6.732;2023-10-31T07:46:50;95180.81;;;9.52;100.00
74346;BME280;62776;50.518;6.732;2023-10-31T07:49:36;95187.50;;;9.60;100.00
74346;BME280;62776;50.518;6.732;2023-10-31T07:52:23;95189.84;;;9.69;100.00
74346;BME280;62776;50.518;6.732;2023-10-31T07:55:09;95192.97;;;9.80;100.00
74346;BME280;62776;50.518;6.732;2023-10-31T07:57:57;95198.78;;;9.88;100.00
74346;BME280;62776;50.518;6.732;2023-10-31T08:00:43;95207.03;;;10.01;100.00
74346;BME280;62776;50.518;6.732;2023-10-31T08:03:29;95207.66;;;10.09;100.00
74346;BME280;62776;50.518;6.732;2023-10-31T08:06:15;95210.78;;;10.22;100.00
74346;BME280;62776;50.518;6.732;2023-10-31T08:09:01;95208.72;;;10.33;100.00
74346;BME280;62776;50.518;6.732;2023-10-31T08:11:48;95213.59;;;10.42;100.00
74346;BME280;62776;50.518;6.732;2023-10-31T08:14:34;95212.56;;;10.47;100.00
74346;BME280;62776;50.518;6.732;2023-10-31T08:17:21;95227.19;;;10.50;100.00
74346;BME280;62776;50.518;6.732;2023-10-31T08:20:08;95226.25;;;10.52;100.00
74346;BME280;62776;50.518;6.732;2023-10-31T08:22:54;95232.28;;;10.54;100.00
74346;BME280;62776;50.518;6.732;2023-10-31T08:25:40;95238.06;;;10.62;100.00
74346;BME280;62776;50.518;6.732;2023-10-31T08:28:27;95237.97;;;10.65;100.00
74346;BME280;62776;50.518;6.732;2023-10-31T08:31:14;95251.78;;;10.66;100.00
74346;BME280;62776;50.518;6.732;2023-10-31T08:34:01;95250.81;;;10.70;100.00
74346;BME280;62776;50.518;6.732;2023-10-31T08:36:47;95259.59;;;10.66;100.00
74346;BME280;62776;50.518;6.732;2023-10-31T08:39:34;95255.31;;;10.65;100.00
74346;BME280;62776;50.518;6.732;2023-10-31T08:42:20;95265.00;;;10.60;100.00
74346;BME280;62776;50.518;6.732;2023-10-31T08:45:07;95267.63;;;10.58;100.00
74346;BME280;62776;50.518;6.732;2023-10-31T08:47:53;95273.59;;;10.62;100.00
74346;BME280;62776;50.518;6.732;2023-10-31T08:50:39;95291.00;;;10.60;100.00
74346;BME280;62776;50.518;6.732;2023-10-31T08:53:25;95291.69;;;10.65;100.00
74346;BME280;62776;50.518;6.732;2023-10-31T08:56:12;95295.09;;;10.67;100.00
74346;BME280;62776;50.518;6.732;2023-10-31T08:59:03;95301.25;;;10.63;100.00
74346;BME280;62776;50.518;6.732;2023-10-31T09:01:50;95295.88;;;10.69;100.00
74346;BME280;62776;50.518;6.732;2023-10-31T09:04:36;95301.06;;;10.69;100.00
74346;BME280;62776;50.518;6.732;2023-10-31T09:07:22;95306.38;;;10.66;100.00
74346;BME280;62776;50.518;6.732;2023-10-31T09:10:09;95302.69;;;10.73;100.00
74346;BME280;62776;50.518;6.732;2023-10-31T09:12:55;95311.25;;;10.77;100.00
74346;BME280;62776;50.518;6.732;2023-10-31T09:15:41;95312.59;;;10.88;100.00
74346;BME280;62776;50.518;6.732;2023-10-31T09:18:27;95309.72;;;10.97;100.00
74346;BME280;62776;50.518;6.732;2023-10-31T09:21:16;95321.00;;;10.96;100.00
74346;BME280;62776;50.518;6.732;2023-10-31T09:24:03;95317.63;;;10.94;100.00
74346;BME280;62776;50.518;6.732;2023-10-31T09:26:49;95328.69;;;11.01;100.00
74346;BME280;62776;50.518;6.732;2023-10-31T09:29:35;95332.94;;;11.03;100.00
74346;BME280;62776;50.518;6.732;2023-10-31T09:32:21;95326.94;;;11.01;100.00
74346;BME280;62776;50.518;6.732;2023-10-31T09:35:08;95328.00;;;10.94;100.00
74346;BME280;62776;50.518;6.732;2023-10-31T09:37:54;95345.41;;;10.92;100.00
74346;BME280;62776;50.518;6.732;2023-10-31T09:40:41;95346.06;;;10.99;100.00
74346;BME280;62776;50.518;6.732;2023-10-31T09:43:28;95344.22;;;11.02;100.00
74346;BME280;62776;50.518;6.732;2023-10-31T09:46:14;95340.38;;;11.14;100.00
74346;BME280;62776;50.518;6.732;2023-10-31T09:49:01;95347.44;;;11.10;100.00
74346;BME280;62776;50.518;6.732;2023-10-31T09:51:47;95349.94;;;11.13;100.00
74346;BME280;62776;50.518;6.732;2023-10-31T09:54:34;95349.09;;;11.13;100.00
74346;BME280;62776;50.518;6.732;2023-10-31T09:57:21;95344.72;;;11.13;100.00
74346;BME280;62776;50.518;6.732;2023-10-31T10:00:08;95355.03;;;11.16;100.00
74346;BME280;62776;50.518;6.732;2023-10-31T10:02:55;95359.97;;;11.25;100.00
74346;BME280;62776;50.518;6.732;2023-10-31T10:05:47;95364.97;;;11.32;100.00
74346;BME280;62776;50.518;6.732;2023-10-31T10:08:37;95370.38;;;11.25;100.00
74346;BME280;62776;50.518;6.732;2023-10-31T10:11:25;95372.66;;;11.35;100.00
74346;BME280;62776;50.518;6.732;2023-10-31T10:14:15;95366.19;;;11.48;100.00
74346;BME280;62776;50.518;6.732;2023-10-31T10:17:02;95373.81;;;11.52;100.00
74346;BME280;62776;50.518;6.732;2023-10-31T10:20:10;95365.13;;;11.53;100.00
74346;BME280;62776;50.518;6.732;2023-10-31T10:23:04;95375.75;;;11.46;100.00
74346;BME280;62776;50.518;6.732;2023-10-31T10:25:57;95373.16;;;11.46;100.00
74346;BME280;62776;50.518;6.732;2023-10-31T10:28:47;95377.84;;;11.35;100.00
74346;BME280;62776;50.518;6.732;2023-10-31T10:31:34;95380.41;;;11.36;100.00
74346;BME280;62776;50.518;6.732;2023-10-31T10:34:21;95373.41;;;11.38;100.00
74346;BME280;62776;50.518;6.732;2023-10-31T10:37:08;95380.88;;;11.49;100.00
74346;BME280;62776;50.518;6.732;2023-10-31T10:39:56;95387.53;;;11.57;100.00
74346;BME280;62776;50.518;6.732;2023-10-31T10:42:46;95391.28;;;11.49;100.00
74346;BME280;62776;50.518;6.732;2023-10-31T10:45:34;95391.03;;;11.56;100.00
74346;BME280;62776;50.518;6.732;2023-10-31T10:48:24;95390.38;;;11.50;100.00
74346;BME280;62776;50.518;6.732;2023-10-31T10:51:24;95384.47;;;11.45;100.00
74346;BME280;62776;50.518;6.732;2023-10-31T10:54:51;95397.69;;;11.39;100.00
74346;BME280;62776;50.518;6.732;2023-10-31T11:00:40;95390.22;;;11.28;100.00
74346;BME280;62776;50.518;6.732;2023-10-31T11:03:30;95390.16;;;11.30;100.00
74346;BME280;62776;50.518;6.732;2023-10-31T11:06:19;95389.38;;;11.27;100.00
74346;BME280;62776;50.518;6.732;2023-10-31T11:09:06;95385.38;;;11.44;100.00
74346;BME280;62776;50.518;6.732;2023-10-31T11:12:00;95395.69;;;11.47;100.00
74346;BME280;62776;50.518;6.732;2023-10-31T11:14:46;95401.75;;;11.47;100.00
74346;BME280;62776;50.518;6.732;2023-10-31T11:17:45;95392.22;;;11.46;100.00
74346;BME280;62776;50.518;6.732;2023-10-31T11:20:33;95395.69;;;11.47;100.00
74346;BME280;62776;50.518;6.732;2023-10-31T11:23:19;95396.28;;;11.55;100.00
74346;BME280;62776;50.518;6.732;2023-10-31T11:26:10;95397.84;;;11.60;100.00
74346;BME280;62776;50.518;6.732;2023-10-31T11:29:04;95393.22;;;11.68;100.00
74346;BME280;62776;50.518;6.732;2023-10-31T11:31:51;95393.66;;;11.82;100.00
74346;BME280;62776;50.518;6.732;2023-10-31T11:34:42;95389.31;;;11.83;100.00
74346;BME280;62776;50.518;6.732;2023-10-31T11:37:33;95388.50;;;11.81;100.00
74346;BME280;62776;50.518;6.732;2023-10-31T11:40:22;95385.66;;;11.89;100.00
74346;BME280;62776;50.518;6.732;2023-10-31T11:43:09;95393.88;;;12.01;100.00
74346;BME280;62776;50.518;6.732;2023-10-31T11:45:58;95397.03;;;12.11;100.00
74346;BME280;62776;50.518;6.732;2023-10-31T11:48:48;95391.22;;;12.27;100.00
74346;BME280;62776;50.518;6.732;2023-10-31T11:51:36;95382.38;;;12.31;100.00
74346;BME280;62776;50.518;6.732;2023-10-31T11:54:22;95389.22;;;12.34;100.00
74346;BME280;62776;50.518;6.732;2023-10-31T11:57:09;95395.88;;;12.42;100.00
74346;BME280;62776;50.518;6.732;2023-10-31T11:59:59;95400.56;;;12.58;100.00
74346;BME280;62776;50.518;6.732;2023-10-31T12:02:57;95391.66;;;12.63;100.00
74346;BME280;62776;50.518;6.732;2023-10-31T12:05:59;95388.53;;;12.77;100.00
74346;BME280;62776;50.518;6.732;2023-10-31T12:08:51;95386.56;;;13.05;100.00
74346;BME280;62776;50.518;6.732;2023-10-31T12:11:44;95388.00;;;13.14;100.00
74346;BME280;62776;50.518;6.732;2023-10-31T12:14:31;95384.91;;;13.26;100.00
74346;BME280;62776;50.518;6.732;2023-10-31T12:17:17;95382.53;;;13.20;100.00
74346;BME280;62776;50.518;6.732;2023-10-31T12:20:05;95384.53;;;13.13;100.00
74346;BME280;62776;50.518;6.732;2023-10-31T12:23:05;95383.94;;;13.05;100.00
74346;BME280;62776;50.518;6.732;2023-10-31T12:25:53;95388.22;;;13.08;100.00
74346;BME280;62776;50.518;6.732;2023-10-31T12:28:41;95378.13;;;12.98;100.00
74346;BME280;62776;50.518;6.732;2023-10-31T12:31:27;95378.44;;;12.91;100.00
74346;BME280;62776;50.518;6.732;2023-10-31T12:34:14;95384.31;;;12.73;100.00
74346;BME280;62776;50.518;6.732;2023-10-31T12:37:04;95375.19;;;12.61;100.00
74346;BME280;62776;50.518;6.732;2023-10-31T12:39:50;95379.25;;;12.47;100.00
74346;BME280;62776;50.518;6.732;2023-10-31T12:42:37;95382.47;;;12.28;100.00
74346;BME280;62776;50.518;6.732;2023-10-31T12:45:25;95383.16;;;12.10;100.00
74346;BME280;62776;50.518;6.732;2023-10-31T12:48:12;95376.22;;;12.09;100.00
74346;BME280;62776;50.518;6.732;2023-10-31T12:51:07;95380.91;;;12.00;100.00
74346;BME280;62776;50.518;6.732;2023-10-31T12:53:56;95373.91;;;12.02;100.00
74346;BME280;62776;50.518;6.732;2023-10-31T12:56:47;95371.56;;;11.94;100.00
74346;BME280;62776;50.518;6.732;2023-10-31T12:59:36;95372.53;;;11.92;100.00
74346;BME280;62776;50.518;6.732;2023-10-31T13:02:24;95370.44;;;12.01;100.00
74346;BME280;62776;50.518;6.732;2023-10-31T13:05:14;95371.28;;;12.02;100.00
74346;BME280;62776;50.518;6.732;2023-10-31T13:08:02;95379.66;;;12.11;100.00
74346;BME280;62776;50.518;6.732;2023-10-31T13:10:50;95377.88;;;12.12;100.00
74346;BME280;62776;50.518;6.732;2023-10-31T13:13:36;95378.16;;;12.04;100.00
74346;BME280;62776;50.518;6.732;2023-10-31T13:16:22;95375.53;;;12.04;100.00
74346;BME280;62776;50.518;6.732;2023-10-31T13:19:09;95384.13;;;12.06;100.00
74346;BME280;62776;50.518;6.732;2023-10-31T13:21:55;95378.03;;;12.07;100.00
74346;BME280;62776;50.518;6.732;2023-10-31T13:24:41;95381.34;;;12.12;100.00
74346;BME280;62776;50.518;6.732;2023-10-31T13:27:28;95375.44;;;12.07;100.00
74346;BME280;62776;50.518;6.732;2023-10-31T13:30:14;95375.50;;;12.06;100.00
74346;BME280;62776;50.518;6.732;2023-10-31T13:33:03;95380.91;;;12.00;100.00
74346;BME280;62776;50.518;6.732;2023-10-31T13:35:50;95387.91;;;11.98;100.00
74346;BME280;62776;50.518;6.732;2023-10-31T13:38:36;95390.06;;;11.87;100.00
74346;BME280;62776;50.518;6.732;2023-10-31T13:41:24;95398.25;;;11.74;100.00
74346;BME280;62776;50.518;6.732;2023-10-31T13:44:15;95393.94;;;11.73;100.00
74346;BME280;62776;50.518;6.732;2023-10-31T13:47:03;95398.25;;;11.74;100.00
74346;BME280;62776;50.518;6.732;2023-10-31T13:49:49;95398.00;;;11.82;100.00
74346;BME280;62776;50.518;6.732;2023-10-31T13:52:36;95406.28;;;11.95;100.00
74346;BME280;62776;50.518;6.732;2023-10-31T13:55:24;95399.94;;;12.02;100.00
74346;BME280;62776;50.518;6.732;2023-10-31T13:58:11;95400.78;;;12.02;100.00
74346;BME280;62776;50.518;6.732;2023-10-31T14:00:57;95408.31;;;12.11;100.00
74346;BME280;62776;50.518;6.732;2023-10-31T14:03:45;95403.66;;;12.19;100.00
74346;BME280;62776;50.518;6.732;2023-10-31T14:06:34;95401.97;;;12.18;100.00
74346;BME280;62776;50.518;6.732;2023-10-31T14:09:20;95405.03;;;12.29;100.00
74346;BME280;62776;50.518;6.732;2023-10-31T14:12:07;95409.94;;;12.38;100.00
74346;BME280;62776;50.518;6.732;2023-10-31T14:14:54;95409.59;;;12.48;100.00
74346;BME280;62776;50.518;6.732;2023-10-31T14:17:40;95407.16;;;12.43;100.00
74346;BME280;62776;50.518;6.732;2023-10-31T14:20:26;95421.81;;;12.46;100.00
74346;BME280;62776;50.518;6.732;2023-10-31T14:23:12;95418.44;;;12.43;100.00
74346;BME280;62776;50.518;6.732;2023-10-31T14:25:58;95421.63;;;12.52;100.00
74346;BME280;62776;50.518;6.732;2023-10-31T14:28:46;95420.94;;;12.47;100.00
74346;BME280;62776;50.518;6.732;2023-10-31T14:31:38;95424.44;;;12.46;100.00
74346;BME280;62776;50.518;6.732;2023-10-31T14:34:27;95422.91;;;12.40;100.00
74346;BME280;62776;50.518;6.732;2023-10-31T14:37:15;95427.25;;;12.39;100.00
74346;BME280;62776;50.518;6.732;2023-10-31T14:40:01;95426.88;;;12.25;100.00
74346;BME280;62776;50.518;6.732;2023-10-31T14:42:49;95427.13;;;12.19;100.00